createdAt,value
2023-05-06T00:02:04.251Z,99.90
2023-05-06T00:04:31.303Z,99.90
2023-05-06T00:06:58.340Z,99.90
2023-05-06T00:09:25.466Z,99.90
2023-05-06T00:11:52.337Z,99.90
2023-05-06T00:14:19.397Z,99.90
2023-05-06T00:16:46.645Z,99.90
2023-05-06T00:19:13.590Z,99.90
2023-05-06T00:21:40.594Z,99.90
2023-05-06T00:24:07.623Z,99.90
2023-05-06T00:26:34.555Z,99.90
2023-05-06T00:29:01.491Z,99.90
2023-05-06T00:31:28.367Z,99.90
2023-05-06T00:33:55.301Z,99.90
2023-05-06T00:36:22.264Z,99.90
2023-05-06T00:38:49.468Z,99.90
2023-05-06T00:41:16.342Z,99.90
2023-05-06T00:43:43.124Z,99.90
2023-05-06T00:46:11.570Z,99.90
2023-05-06T00:48:39.413Z,99.90
2023-05-06T00:51:06.363Z,99.90
2023-05-06T00:53:33.784Z,99.90
2023-05-06T00:56:00.735Z,99.90
2023-05-06T00:58:27.737Z,99.90
2023-05-06T01:00:56.025Z,99.90
2023-05-06T01:03:23.043Z,99.90
2023-05-06T01:06:08.056Z,99.90
2023-05-06T01:08:41.964Z,99.90
2023-05-06T01:11:41.065Z,99.90
2023-05-06T01:14:49.108Z,99.90
2023-05-06T01:17:19.585Z,99.90
2023-05-06T01:19:53.386Z,99.90
2023-05-06T01:22:21.105Z,99.90
2023-05-06T01:24:47.971Z,99.90
2023-05-06T01:27:16.685Z,99.90
2023-05-06T01:29:46.731Z,99.90
2023-05-06T01:32:19.704Z,99.90
2023-05-06T01:35:12.076Z,99.90
2023-05-06T01:37:47.882Z,99.90
2023-05-06T01:40:17.869Z,99.90
2023-05-06T01:42:51.120Z,99.90
2023-05-06T01:45:21.874Z,99.90
2023-05-06T01:47:48.983Z,99.90
2023-05-06T01:50:16.050Z,99.90
2023-05-06T01:52:42.888Z,99.90
2023-05-06T01:55:10.297Z,99.90
2023-05-06T01:57:37.528Z,99.90
2023-05-06T02:00:05.652Z,99.90
2023-05-06T02:02:39.276Z,99.90
2023-05-06T02:05:07.965Z,99.90
2023-05-06T02:07:38.901Z,99.90
2023-05-06T02:10:06.749Z,99.90
2023-05-06T02:12:35.569Z,99.90
2023-05-06T02:15:02.628Z,99.90
2023-05-06T02:17:29.589Z,99.90
2023-05-06T02:19:56.619Z,99.90
2023-05-06T02:22:23.569Z,99.90
2023-05-06T02:24:50.467Z,99.90
2023-05-06T02:27:17.357Z,99.90
2023-05-06T02:29:44.729Z,99.90
2023-05-06T02:32:11.552Z,99.90
2023-05-06T02:34:43.722Z,99.90
2023-05-06T02:37:10.740Z,99.90
2023-05-06T02:39:37.572Z,99.90
2023-05-06T02:42:04.553Z,99.90
2023-05-06T02:44:31.416Z,99.90
2023-05-06T02:46:58.898Z,99.90
2023-05-06T02:49:25.843Z,99.90
2023-05-06T02:51:52.698Z,99.90
2023-05-06T02:54:19.719Z,99.90
2023-05-06T02:56:46.697Z,99.90
2023-05-06T02:59:13.989Z,99.90
2023-05-06T03:01:40.892Z,99.90
2023-05-06T03:04:07.897Z,99.90
2023-05-06T03:06:35.179Z,99.90
2023-05-06T03:09:02.200Z,99.90
2023-05-06T03:11:31.443Z,99.90
2023-05-06T03:14:00.874Z,99.90
2023-05-06T03:16:28.243Z,99.90
2023-05-06T03:18:58.068Z,99.90
2023-05-06T03:21:26.058Z,99.90
2023-05-06T03:23:53.614Z,99.90
2023-05-06T03:26:23.724Z,99.90
2023-05-06T03:28:50.908Z,99.90
2023-05-06T03:31:20.440Z,99.90
2023-05-06T03:33:47.583Z,99.90
2023-05-06T03:36:15.039Z,99.90
2023-05-06T03:38:44.192Z,99.90
2023-05-06T03:41:11.481Z,99.90
2023-05-06T03:43:38.641Z,99.90
2023-05-06T03:46:06.295Z,99.90
2023-05-06T03:48:35.309Z,99.90
2023-05-06T03:51:04.308Z,99.90
2023-05-06T03:53:31.656Z,99.90
2023-05-06T03:55:58.583Z,99.90
2023-05-06T03:58:25.462Z,99.90
2023-05-06T04:00:52.459Z,99.90
2023-05-06T04:03:19.555Z,99.90
2023-05-06T04:05:50.815Z,99.90
2023-05-06T04:08:21.042Z,99.90
2023-05-06T04:10:48.030Z,99.90
2023-05-06T04:13:26.655Z,99.90
2023-05-06T04:15:54.038Z,99.90
2023-05-06T04:18:26.049Z,99.90
2023-05-06T04:21:00.094Z,99.90
2023-05-06T04:23:28.286Z,99.90
2023-05-06T04:25:57.803Z,99.90
2023-05-06T04:28:25.656Z,99.90
2023-05-06T04:30:53.721Z,99.90
2023-05-06T04:33:25.541Z,99.90
2023-05-06T04:35:54.025Z,99.90
2023-05-06T04:38:25.055Z,99.90
2023-05-06T04:40:53.552Z,99.90
2023-05-06T04:43:21.084Z,99.90
2023-05-06T04:45:52.869Z,99.90
2023-05-06T04:48:24.544Z,99.90
2023-05-06T04:50:54.442Z,99.90
2023-05-06T04:53:21.386Z,99.90
2023-05-06T04:55:48.523Z,99.90
2023-05-06T04:58:16.559Z,99.90
2023-05-06T05:00:45.222Z,99.90
2023-05-06T05:03:12.313Z,99.90
2023-05-06T05:05:39.218Z,99.90
2023-05-06T05:08:13.894Z,99.90
2023-05-06T05:10:43.974Z,99.90
2023-05-06T05:13:14.659Z,99.90
2023-05-06T05:15:43.265Z,99.90
2023-05-06T05:18:13.429Z,99.90
2023-05-06T05:20:40.700Z,99.90
2023-05-06T05:23:10.295Z,99.90
2023-05-06T05:25:38.364Z,99.90
2023-05-06T05:28:05.870Z,99.90
2023-05-06T05:30:34.462Z,99.90
2023-05-06T05:33:01.578Z,99.90
2023-05-06T05:35:28.644Z,99.90
2023-05-06T05:37:56.088Z,99.90
2023-05-06T05:40:23.643Z,99.90
2023-05-06T05:42:53.188Z,99.90
2023-05-06T05:45:29.883Z,99.90
2023-05-06T05:47:57.265Z,99.90
2023-05-06T05:50:32.414Z,99.90
2023-05-06T05:53:00.002Z,99.90
2023-05-06T05:55:29.495Z,99.90
2023-05-06T05:57:56.495Z,99.90
2023-05-06T06:00:24.972Z,99.90
2023-05-06T06:02:58.055Z,99.90
2023-05-06T06:05:25.143Z,99.90
2023-05-06T06:07:52.173Z,99.90
2023-05-06T06:10:19.954Z,99.90
2023-05-06T06:12:46.899Z,99.90
2023-05-06T06:15:18.616Z,99.90
2023-05-06T06:17:46.599Z,99.90
2023-05-06T06:20:14.325Z,99.90
2023-05-06T06:22:41.460Z,99.90
2023-05-06T06:25:09.672Z,99.90
2023-05-06T06:27:37.019Z,99.90
2023-05-06T06:30:04.855Z,99.90
2023-05-06T06:32:31.900Z,99.90
2023-05-06T06:34:58.863Z,99.90
2023-05-06T06:37:25.811Z,99.90
2023-05-06T06:39:52.696Z,99.90
2023-05-06T06:42:19.588Z,99.90
2023-05-06T06:44:55.985Z,99.90
2023-05-06T06:47:22.852Z,99.90
2023-05-06T06:49:49.817Z,99.90
2023-05-06T06:52:16.734Z,99.90
2023-05-06T06:54:43.659Z,99.90
2023-05-06T06:57:10.581Z,99.90
2023-05-06T06:59:37.494Z,99.90
2023-05-06T07:02:04.494Z,99.90
2023-05-06T07:04:31.421Z,99.90
2023-05-06T07:06:58.344Z,99.90
2023-05-06T07:09:25.492Z,99.90
2023-05-06T07:11:52.478Z,99.90
2023-05-06T07:14:20.881Z,99.90
2023-05-06T07:16:50.009Z,99.90
2023-05-06T07:19:18.270Z,99.90
2023-05-06T07:21:45.376Z,99.90
2023-05-06T07:24:12.229Z,99.90
2023-05-06T07:26:39.742Z,99.90
2023-05-06T07:29:06.737Z,99.90
2023-05-06T07:31:33.780Z,99.90
2023-05-06T07:34:00.955Z,99.90
2023-05-06T07:36:28.687Z,99.90
2023-05-06T07:38:55.687Z,99.90
2023-05-06T07:41:22.643Z,99.90
2023-05-06T07:43:52.021Z,99.90
2023-05-06T07:46:19.057Z,99.90
2023-05-06T07:48:46.074Z,99.90
2023-05-06T07:51:12.974Z,99.90
2023-05-06T07:53:40.182Z,99.90
2023-05-06T07:56:07.135Z,99.90
2023-05-06T07:58:34.060Z,99.90
2023-05-06T08:01:01.076Z,99.90
2023-05-06T08:03:28.131Z,99.90
2023-05-06T08:05:55.339Z,99.90
2023-05-06T08:08:23.816Z,99.90
2023-05-06T08:10:50.844Z,99.90
2023-05-06T08:13:17.959Z,99.90
2023-05-06T08:15:45.350Z,99.90
2023-05-06T08:18:21.736Z,99.90
2023-05-06T08:20:49.491Z,99.90
2023-05-06T08:23:16.316Z,99.90
2023-05-06T08:25:43.485Z,99.90
2023-05-06T08:28:10.488Z,99.90
2023-05-06T08:30:37.451Z,99.90
2023-05-06T08:33:04.458Z,99.90
2023-05-06T08:35:31.492Z,99.90
2023-05-06T08:37:58.538Z,99.90
2023-05-06T08:40:27.101Z,99.90
2023-05-06T08:42:57.337Z,99.90
2023-05-06T08:45:24.648Z,99.90
2023-05-06T08:47:52.590Z,99.90
2023-05-06T08:50:20.043Z,99.90
2023-05-06T08:52:47.760Z,99.90
2023-05-06T08:55:15.359Z,99.90
2023-05-06T08:57:45.126Z,99.90
2023-05-06T09:00:12.622Z,99.90
2023-05-06T09:02:42.696Z,98.10
2023-05-06T09:05:11.385Z,97.20
2023-05-06T09:07:38.413Z,95.00
2023-05-06T09:10:15.487Z,96.20
2023-05-06T09:12:42.400Z,95.80
2023-05-06T09:15:10.493Z,97.10
2023-05-06T09:17:38.591Z,94.50
2023-05-06T09:20:09.035Z,94.10
2023-05-06T09:22:40.031Z,94.00
2023-05-06T09:25:08.140Z,94.70
2023-05-06T09:27:36.846Z,94.40
2023-05-06T09:30:11.998Z,92.70
2023-05-06T09:32:40.869Z,91.10
2023-05-06T09:35:10.538Z,89.70
2023-05-06T09:37:37.675Z,86.80
2023-05-06T09:40:05.965Z,83.80
2023-05-06T09:42:34.377Z,81.30
2023-05-06T09:45:03.212Z,87.60
2023-05-06T09:47:35.106Z,80.20
2023-05-06T09:50:05.794Z,77.10
2023-05-06T09:52:32.656Z,79.00
2023-05-06T09:55:01.331Z,77.80
2023-05-06T09:57:31.072Z,75.40
2023-05-06T09:59:59.015Z,76.10
2023-05-06T10:02:27.736Z,75.30
2023-05-06T10:04:58.549Z,77.60
2023-05-06T10:07:28.794Z,74.80
2023-05-06T10:09:58.597Z,73.70
2023-05-06T10:12:26.340Z,73.10
2023-05-06T10:14:53.399Z,73.90
2023-05-06T10:17:25.752Z,74.40
2023-05-06T10:19:58.787Z,72.80
2023-05-06T10:22:57.242Z,69.10
2023-05-06T10:25:36.422Z,67.70
2023-05-06T10:28:12.585Z,66.50
2023-05-06T10:30:45.012Z,66.00
2023-05-06T10:33:14.430Z,64.20
2023-05-06T10:35:41.401Z,63.70
2023-05-06T10:38:18.029Z,62.20
2023-05-06T10:40:46.246Z,63.60
2023-05-06T10:43:34.266Z,64.60
2023-05-06T10:46:11.112Z,62.40
2023-05-06T10:49:06.032Z,60.10
2023-05-06T10:51:34.658Z,60.10
2023-05-06T10:54:21.434Z,58.70
2023-05-06T10:56:48.318Z,60.10
2023-05-06T10:59:25.727Z,59.40
2023-05-06T11:02:08.839Z,57.30
2023-05-06T11:04:37.490Z,58.90
2023-05-06T11:07:21.208Z,59.50
2023-05-06T11:10:10.442Z,59.20
2023-05-06T11:12:44.954Z,58.20
2023-05-06T11:15:36.421Z,58.20
2023-05-06T11:18:25.097Z,57.60
2023-05-06T11:21:02.494Z,59.20
2023-05-06T11:23:52.184Z,57.80
2023-05-06T11:26:19.684Z,55.90
2023-05-06T11:28:50.339Z,57.40
2023-05-06T11:31:18.129Z,55.60
2023-05-06T11:33:50.334Z,53.70
2023-05-06T11:36:19.560Z,53.60
2023-05-06T11:38:49.693Z,53.90
2023-05-06T11:41:18.237Z,54.80
2023-05-06T11:43:51.130Z,52.60
2023-05-06T11:46:23.317Z,55.00
2023-05-06T11:48:51.090Z,54.00
2023-05-06T11:51:24.957Z,53.70
2023-05-06T11:54:06.965Z,53.60
2023-05-06T11:56:57.259Z,51.40
2023-05-06T11:59:31.535Z,51.40
2023-05-06T12:02:01.421Z,51.60
2023-05-06T12:04:28.609Z,50.40
2023-05-06T12:06:56.977Z,51.10
2023-05-06T12:09:25.078Z,50.20
2023-05-06T12:11:52.987Z,51.40
2023-05-06T12:14:20.217Z,52.60
2023-05-06T12:16:47.551Z,54.30
2023-05-06T12:19:18.049Z,53.60
2023-05-06T12:21:46.240Z,53.70
2023-05-06T12:24:13.452Z,54.30
2023-05-06T12:26:49.491Z,52.40
2023-05-06T12:29:18.131Z,52.80
2023-05-06T12:31:49.266Z,53.20
2023-05-06T12:34:18.444Z,55.00
2023-05-06T12:36:47.358Z,54.00
2023-05-06T12:39:14.699Z,54.50
2023-05-06T12:41:46.490Z,54.90
2023-05-06T12:44:38.388Z,54.70
2023-05-06T12:47:25.688Z,54.50
2023-05-06T12:50:01.144Z,54.70
2023-05-06T12:52:30.285Z,55.80
2023-05-06T12:55:00.782Z,56.40
2023-05-06T12:57:27.830Z,56.30
2023-05-06T12:59:56.189Z,56.00
2023-05-06T13:02:23.348Z,54.90
2023-05-06T13:04:50.375Z,54.70
2023-05-06T13:07:40.608Z,55.60
2023-05-06T13:10:28.710Z,55.30
2023-05-06T13:12:55.798Z,55.70
2023-05-06T13:15:23.964Z,55.60
2023-05-06T13:17:51.244Z,55.00
2023-05-06T13:20:18.557Z,55.00
2023-05-06T13:22:54.355Z,55.30
2023-05-06T13:25:22.203Z,55.10
2023-05-06T13:27:49.461Z,54.80
2023-05-06T13:30:16.923Z,54.70
2023-05-06T13:32:44.046Z,55.40
2023-05-06T13:35:11.325Z,54.60
2023-05-06T13:37:38.566Z,54.60
2023-05-06T13:40:06.600Z,54.60
2023-05-06T13:42:33.506Z,54.10
2023-05-06T13:45:00.672Z,54.40
2023-05-06T13:47:27.643Z,54.70
2023-05-06T13:49:54.533Z,55.00
2023-05-06T13:52:21.625Z,55.70
2023-05-06T13:54:48.589Z,56.10
2023-05-06T13:57:15.784Z,56.30
2023-05-06T13:59:42.687Z,57.00
2023-05-06T14:02:10.191Z,56.30
2023-05-06T14:04:37.291Z,56.80
2023-05-06T14:07:04.360Z,56.40
2023-05-06T14:09:31.612Z,56.90
2023-05-06T14:11:58.624Z,56.60
2023-05-06T14:14:25.669Z,56.00
2023-05-06T14:16:54.492Z,57.00
2023-05-06T14:19:22.264Z,57.10
2023-05-06T14:21:50.882Z,56.00
2023-05-06T14:24:17.972Z,56.00
2023-05-06T14:26:46.051Z,56.90
2023-05-06T14:29:13.051Z,56.70
2023-05-06T14:31:40.045Z,57.00
2023-05-06T14:34:07.816Z,56.40
2023-05-06T14:36:34.787Z,57.30
2023-05-06T14:39:01.669Z,57.50
2023-05-06T14:41:28.666Z,57.80
2023-05-06T14:43:55.563Z,56.80
2023-05-06T14:46:22.529Z,57.50
2023-05-06T14:48:49.502Z,57.60
2023-05-06T14:51:16.558Z,58.80
2023-05-06T14:53:44.214Z,59.00
2023-05-06T14:56:11.599Z,58.80
2023-05-06T14:58:39.342Z,60.10
2023-05-06T15:01:07.005Z,60.20
2023-05-06T15:03:34.162Z,60.40
2023-05-06T15:06:01.151Z,59.80
2023-05-06T15:08:28.147Z,60.80
2023-05-06T15:10:55.355Z,60.60
2023-05-06T15:13:22.564Z,60.70
2023-05-06T15:15:49.873Z,61.60
2023-05-06T15:18:16.934Z,61.10
2023-05-06T15:20:43.969Z,61.10
2023-05-06T15:23:10.959Z,61.50
2023-05-06T15:25:38.225Z,60.90
2023-05-06T15:28:05.929Z,61.90
2023-05-06T15:30:32.858Z,61.40
2023-05-06T15:33:01.671Z,61.90
2023-05-06T15:35:28.868Z,61.90
2023-05-06T15:37:58.813Z,62.40
2023-05-06T15:40:26.924Z,62.60
2023-05-06T15:42:53.956Z,63.60
2023-05-06T15:45:21.847Z,69.10
2023-05-06T15:47:48.835Z,79.00
2023-05-06T15:50:28.898Z,90.40
2023-05-06T15:53:01.034Z,96.90
2023-05-06T15:55:28.659Z,99.90
2023-05-06T15:57:56.289Z,99.90
2023-05-06T16:00:24.364Z,99.90
2023-05-06T16:02:51.425Z,99.90
2023-05-06T16:05:18.559Z,99.90
2023-05-06T16:07:45.537Z,99.90
2023-05-06T16:10:12.692Z,99.90
2023-05-06T16:12:39.760Z,99.90
2023-05-06T16:15:08.290Z,99.90
2023-05-06T16:17:37.487Z,99.90
2023-05-06T16:20:05.546Z,99.90
2023-05-06T16:22:32.692Z,99.90
2023-05-06T16:24:59.767Z,99.90
2023-05-06T16:27:28.132Z,99.90
2023-05-06T16:29:55.647Z,99.90
2023-05-06T16:32:23.422Z,99.90
2023-05-06T16:34:50.489Z,99.90
2023-05-06T16:37:17.369Z,99.90
2023-05-06T16:39:44.368Z,99.90
2023-05-06T16:42:11.238Z,99.90
2023-05-06T16:44:38.179Z,99.90
2023-05-06T16:50:58.684Z,99.90
2023-05-06T16:53:27.682Z,99.90
2023-05-06T16:55:54.829Z,99.90
2023-05-06T17:00:48.941Z,99.90
2023-05-06T17:03:18.239Z,99.90
2023-05-06T17:06:09.005Z,99.90
2023-05-06T17:08:39.847Z,99.90
2023-05-06T17:11:10.075Z,99.90
2023-05-06T17:13:37.032Z,99.90
2023-05-06T17:16:04.217Z,99.90
2023-05-06T17:18:31.241Z,99.90
2023-05-06T17:20:58.558Z,99.90
2023-05-06T17:23:25.822Z,99.90
2023-05-06T17:25:55.195Z,99.90
2023-05-06T17:28:22.039Z,99.90
2023-05-06T17:30:48.956Z,99.90
2023-05-06T17:37:19.354Z,99.90
2023-05-06T17:39:47.164Z,99.90
2023-05-06T17:42:14.469Z,99.90
2023-05-06T17:44:42.782Z,99.90
2023-05-06T17:47:10.779Z,99.90
2023-05-06T17:49:38.120Z,99.90
2023-05-06T17:52:05.096Z,99.90
2023-05-06T17:54:36.295Z,99.90
2023-05-06T17:57:03.659Z,99.90
2023-05-06T17:59:30.713Z,99.90
2023-05-06T18:01:57.760Z,99.90
2023-05-06T18:04:24.847Z,99.90
2023-05-06T18:06:51.869Z,99.90
2023-05-06T18:09:19.753Z,99.90
2023-05-06T18:11:46.766Z,99.90
2023-05-06T18:14:13.916Z,99.90
2023-05-06T18:16:41.327Z,99.90
2023-05-06T18:19:08.869Z,99.90
2023-05-06T18:21:36.016Z,99.90
2023-05-06T18:24:15.398Z,99.90
2023-05-06T18:26:46.056Z,99.90
2023-05-06T18:29:13.542Z,99.90
2023-05-06T18:31:41.762Z,99.90
2023-05-06T18:34:08.832Z,99.90
2023-05-06T18:36:36.385Z,99.90
2023-05-06T18:39:04.726Z,99.90
2023-05-06T18:41:31.773Z,99.90
2023-05-06T18:43:58.678Z,99.90
2023-05-06T18:46:27.367Z,99.90
2023-05-06T18:48:55.894Z,99.90
2023-05-06T18:51:23.030Z,99.90
2023-05-06T18:53:49.909Z,99.90
2023-05-06T18:57:49.047Z,99.90
2023-05-06T19:00:16.520Z,99.90
2023-05-06T19:03:15.683Z,99.90
2023-05-06T19:05:42.631Z,99.90
2023-05-06T19:08:38.739Z,99.90
2023-05-06T19:11:05.953Z,99.90
2023-05-06T19:13:33.064Z,99.90
2023-05-06T19:16:00.334Z,99.90
2023-05-06T19:18:27.830Z,99.90
2023-05-06T19:20:55.916Z,99.90
2023-05-06T19:23:23.126Z,99.90
2023-05-06T19:25:50.172Z,99.90
2023-05-06T19:28:17.151Z,99.90
2023-05-06T19:30:44.301Z,99.90
2023-05-06T19:33:20.110Z,99.90
2023-05-06T19:35:52.702Z,99.90
2023-05-06T19:38:39.983Z,99.90
2023-05-06T19:41:11.064Z,99.90
2023-05-06T19:43:44.499Z,99.90
2023-05-06T19:46:38.470Z,99.90
2023-05-06T19:49:06.363Z,99.90
2023-05-06T19:51:48.364Z,99.90
2023-05-06T19:54:15.581Z,99.90
2023-05-06T19:56:52.016Z,99.90
2023-05-06T19:59:32.988Z,99.90
2023-05-06T20:02:42.702Z,99.90
2023-05-06T20:05:43.738Z,99.90
2023-05-06T20:08:32.649Z,99.90
2023-05-06T20:11:18.538Z,99.90
2023-05-06T20:14:09.961Z,99.90
2023-05-06T20:17:43.473Z,99.90
2023-05-06T20:20:25.848Z,99.90
2023-05-06T20:24:05.401Z,99.90
2023-05-06T20:26:57.928Z,99.90
2023-05-06T20:29:37.047Z,99.90
2023-05-06T20:32:09.130Z,99.90
2023-05-06T20:34:36.188Z,99.90
2023-05-06T20:37:04.933Z,99.90
2023-05-06T20:39:34.454Z,99.90
2023-05-06T20:42:05.050Z,99.90
2023-05-06T20:44:32.401Z,99.90
2023-05-06T20:47:24.596Z,99.90
2023-05-06T20:49:53.799Z,99.90
2023-05-06T20:52:21.757Z,99.90
2023-05-06T20:54:49.279Z,99.90
2023-05-06T20:57:17.243Z,99.90
2023-05-06T20:59:44.425Z,99.90
2023-05-06T21:02:14.579Z,99.90
2023-05-06T21:04:42.371Z,99.90
2023-05-06T21:07:09.572Z,99.90
2023-05-06T21:09:38.186Z,99.90
2023-05-06T21:12:05.372Z,99.90
2023-05-06T21:14:32.366Z,99.90
2023-05-06T21:16:59.552Z,99.90
2023-05-06T21:19:26.775Z,99.90
2023-05-06T21:21:53.984Z,99.90
2023-05-06T21:24:20.962Z,99.90
2023-05-06T21:26:48.628Z,99.90
2023-05-06T21:29:15.653Z,99.90
2023-05-06T21:31:42.579Z,99.90
2023-05-06T21:34:10.472Z,99.90
2023-05-06T21:36:37.731Z,99.90
2023-05-06T21:39:12.805Z,99.90
2023-05-06T21:41:40.482Z,99.90
2023-05-06T21:44:19.147Z,99.90
2023-05-06T21:46:50.938Z,99.90
2023-05-06T21:49:19.368Z,99.90
2023-05-06T21:51:46.535Z,99.90
2023-05-06T21:54:13.406Z,99.90
2023-05-06T21:56:40.414Z,99.90
2023-05-06T21:59:07.953Z,99.90
2023-05-06T22:01:36.151Z,99.90
2023-05-06T22:04:04.871Z,99.90
2023-05-06T22:06:32.531Z,99.90
2023-05-06T22:08:59.568Z,99.90
2023-05-06T22:11:26.825Z,99.90
2023-05-06T22:13:53.791Z,99.90
2023-05-06T22:16:20.955Z,99.90
2023-05-06T22:18:49.642Z,99.90
2023-05-06T22:21:17.338Z,99.90
2023-05-06T22:23:44.558Z,99.90
2023-05-06T22:26:12.255Z,99.90
2023-05-06T22:28:55.450Z,99.90
2023-05-06T22:31:38.986Z,99.90
2023-05-06T22:34:12.333Z,99.90
2023-05-06T22:36:39.587Z,99.90
2023-05-06T22:39:09.684Z,99.90
2023-05-06T22:41:48.696Z,99.90
2023-05-06T22:44:32.861Z,99.90
2023-05-06T22:47:11.303Z,99.90
2023-05-06T22:49:44.332Z,99.90
2023-05-06T22:52:21.047Z,99.90
2023-05-06T22:54:51.411Z,99.90
2023-05-06T22:57:27.081Z,99.90
2023-05-06T22:59:57.693Z,99.90
2023-05-06T23:02:30.486Z,99.90
2023-05-06T23:05:00.239Z,99.90
2023-05-06T23:07:29.255Z,99.90
2023-05-06T23:10:00.185Z,99.90
2023-05-06T23:12:35.126Z,99.90
2023-05-06T23:15:14.118Z,99.90
2023-05-06T23:17:47.508Z,99.90
2023-05-06T23:20:19.222Z,99.90
2023-05-06T23:22:57.580Z,99.90
2023-05-06T23:25:28.870Z,99.90
2023-05-06T23:27:56.161Z,99.90
2023-05-06T23:30:23.036Z,99.90
2023-05-06T23:32:50.469Z,99.90
2023-05-06T23:35:25.036Z,99.90
2023-05-06T23:37:57.408Z,99.90
2023-05-06T23:40:24.928Z,99.90
2023-05-06T23:42:52.069Z,99.90
2023-05-06T23:45:20.302Z,99.90
2023-05-06T23:47:47.180Z,99.90
2023-05-06T23:50:14.544Z,99.90
2023-05-06T23:52:41.734Z,99.90
2023-05-06T23:55:09.522Z,99.90
2023-05-06T23:57:36.638Z,99.90
